createdAt,value
2023-01-29T00:01:16.275Z,20.11
2023-01-29T00:04:20.041Z,20.09
2023-01-29T00:07:23.954Z,20.11
2023-01-29T00:10:27.883Z,20.10
2023-01-29T00:13:31.550Z,20.11
2023-01-29T00:16:36.284Z,20.10
2023-01-29T00:19:39.721Z,20.11
2023-01-29T00:22:43.082Z,20.10
2023-01-29T00:25:47.134Z,20.09
2023-01-29T00:28:50.427Z,20.09
2023-01-29T00:31:55.567Z,20.09
2023-01-29T00:34:58.778Z,20.09
2023-01-29T00:38:02.588Z,20.08
2023-01-29T00:41:35.202Z,20.06
2023-01-29T00:44:56.418Z,20.07
2023-01-29T00:48:01.425Z,20.06
2023-01-29T00:51:05.600Z,20.06
2023-01-29T00:54:08.930Z,20.05
2023-01-29T00:57:12.558Z,20.05
2023-01-29T01:00:19.671Z,20.04
2023-01-29T01:03:23.745Z,20.03
2023-01-29T01:06:26.957Z,20.05
2023-01-29T01:09:48.177Z,20.03
2023-01-29T01:12:56.626Z,20.03
2023-01-29T01:16:00.931Z,20.03
2023-01-29T01:19:06.391Z,20.02
2023-01-29T01:22:10.083Z,20.03
2023-01-29T01:25:13.951Z,20.02
2023-01-29T01:28:18.325Z,20.03
2023-01-29T01:31:21.667Z,20.02
2023-01-29T01:34:27.837Z,20.00
2023-01-29T01:37:31.608Z,20.02
2023-01-29T01:40:35.499Z,20.00
2023-01-29T01:43:51.032Z,19.98
2023-01-29T01:46:54.707Z,19.99
2023-01-29T01:50:08.812Z,19.97
2023-01-29T01:53:17.716Z,19.98
2023-01-29T01:56:28.412Z,19.96
2023-01-29T01:59:37.999Z,19.96
2023-01-29T02:03:02.392Z,19.96
2023-01-29T02:06:26.045Z,19.95
2023-01-29T02:09:39.560Z,19.94
2023-01-29T02:12:46.681Z,19.92
2023-01-29T02:15:52.572Z,19.93
2023-01-29T02:18:56.602Z,19.92
2023-01-29T02:22:55.046Z,19.89
2023-01-29T02:26:35.301Z,19.89
2023-01-29T02:29:58.147Z,19.89
2023-01-29T02:33:27.311Z,19.88
2023-01-29T02:36:42.868Z,19.87
2023-01-29T02:40:01.150Z,19.87
2023-01-29T02:43:23.568Z,19.87
2023-01-29T02:46:38.029Z,19.86
2023-01-29T02:49:51.571Z,19.86
2023-01-29T02:53:06.418Z,19.87
2023-01-29T02:56:18.102Z,19.87
2023-01-29T02:59:29.469Z,19.87
2023-01-29T03:02:43.782Z,19.86
2023-01-29T03:05:59.843Z,19.86
2023-01-29T03:09:10.764Z,19.87
2023-01-29T03:12:34.189Z,19.88
2023-01-29T03:15:46.938Z,19.88
2023-01-29T03:19:16.402Z,19.89
2023-01-29T03:22:23.335Z,19.87
2023-01-29T03:25:47.602Z,19.89
2023-01-29T03:29:11.830Z,19.89
2023-01-29T03:32:21.067Z,19.88
2023-01-29T03:35:35.385Z,19.85
2023-01-29T03:38:40.177Z,19.87
2023-01-29T03:41:53.226Z,19.87
2023-01-29T03:45:08.649Z,19.88
2023-01-29T03:48:31.966Z,19.89
2023-01-29T03:51:47.465Z,19.88
2023-01-29T03:55:02.207Z,19.88
2023-01-29T03:58:26.347Z,19.87
2023-01-29T04:01:41.712Z,19.88
2023-01-29T04:04:53.268Z,19.88
2023-01-29T04:08:08.348Z,19.87
2023-01-29T04:11:19.625Z,19.86
2023-01-29T04:14:24.495Z,19.86
2023-01-29T04:17:39.028Z,19.86
2023-01-29T04:20:50.168Z,19.86
2023-01-29T04:23:55.435Z,19.86
2023-01-29T04:27:11.825Z,19.86
2023-01-29T04:30:37.360Z,19.84
2023-01-29T04:33:53.453Z,19.84
2023-01-29T04:37:13.734Z,19.82
2023-01-29T04:40:27.053Z,19.84
2023-01-29T04:43:40.124Z,19.84
2023-01-29T04:46:50.741Z,19.83
2023-01-29T04:50:12.950Z,19.82
2023-01-29T04:53:28.913Z,19.81
2023-01-29T04:56:45.646Z,19.80
2023-01-29T04:59:59.331Z,19.81
2023-01-29T05:03:03.849Z,19.81
2023-01-29T05:06:11.831Z,19.80
2023-01-29T05:09:18.170Z,19.79
2023-01-29T05:12:29.665Z,19.79
2023-01-29T05:15:38.982Z,19.80
2023-01-29T05:18:43.091Z,19.80
2023-01-29T05:21:51.071Z,19.80
2023-01-29T05:24:54.425Z,19.81
2023-01-29T05:28:04.569Z,19.80
2023-01-29T05:31:09.144Z,19.80
2023-01-29T05:34:13.139Z,19.79
2023-01-29T05:37:16.511Z,19.80
2023-01-29T05:40:20.719Z,19.79
2023-01-29T05:43:27.131Z,19.78
2023-01-29T05:46:30.985Z,19.79
2023-01-29T05:49:34.487Z,19.79
2023-01-29T05:52:38.664Z,19.78
2023-01-29T05:55:46.549Z,19.78
2023-01-29T05:58:51.675Z,19.78
2023-01-29T06:01:55.198Z,19.78
2023-01-29T06:04:59.043Z,19.78
2023-01-29T06:08:02.714Z,19.78
2023-01-29T06:11:11.084Z,19.76
2023-01-29T06:14:15.920Z,19.77
2023-01-29T06:17:19.616Z,19.81
2023-01-29T06:20:23.517Z,19.84
2023-01-29T06:23:27.075Z,19.87
2023-01-29T06:26:30.650Z,19.84
2023-01-29T06:29:35.563Z,19.85
2023-01-29T06:32:39.001Z,19.87
2023-01-29T06:35:42.589Z,19.90
2023-01-29T06:38:47.224Z,19.93
2023-01-29T06:41:50.939Z,19.97
2023-01-29T06:44:55.743Z,20.00
2023-01-29T06:48:01.333Z,20.04
2023-01-29T06:51:06.591Z,20.05
2023-01-29T06:54:11.613Z,20.10
2023-01-29T06:57:14.996Z,20.12
2023-01-29T07:00:20.655Z,20.16
2023-01-29T07:03:24.211Z,20.17
2023-01-29T07:06:31.823Z,20.19
2023-01-29T07:09:35.480Z,20.21
2023-01-29T07:12:39.160Z,20.21
2023-01-29T07:15:44.535Z,20.22
2023-01-29T07:18:47.982Z,20.22
2023-01-29T07:21:51.449Z,20.23
2023-01-29T07:24:54.931Z,20.25
2023-01-29T07:28:01.647Z,20.24
2023-01-29T07:31:07.585Z,20.25
2023-01-29T07:34:10.907Z,20.25
2023-01-29T07:37:14.500Z,20.27
2023-01-29T07:40:18.712Z,20.26
2023-01-29T07:43:24.827Z,20.25
2023-01-29T07:46:29.441Z,20.27
2023-01-29T07:49:32.886Z,20.27
2023-01-29T07:52:36.181Z,20.25
2023-01-29T07:55:39.697Z,20.27
2023-01-29T07:58:43.068Z,20.25
2023-01-29T08:01:48.016Z,20.26
2023-01-29T08:04:51.339Z,20.26
2023-01-29T08:08:06.040Z,20.26
2023-01-29T08:11:10.041Z,20.27
2023-01-29T08:14:13.612Z,20.27
2023-01-29T08:17:18.566Z,20.27
2023-01-29T08:20:23.482Z,20.29
2023-01-29T08:23:26.777Z,20.30
2023-01-29T08:26:30.698Z,20.30
2023-01-29T08:29:34.065Z,20.33
2023-01-29T08:32:39.101Z,20.32
2023-01-29T08:35:42.348Z,20.34
2023-01-29T08:38:45.923Z,20.36
2023-01-29T08:41:49.384Z,20.37
2023-01-29T08:44:53.509Z,20.37
2023-01-29T08:47:58.351Z,20.38
2023-01-29T08:51:04.476Z,20.41
2023-01-29T08:54:07.815Z,20.44
2023-01-29T08:57:11.290Z,20.50
2023-01-29T09:00:16.781Z,20.54
2023-01-29T09:03:22.074Z,20.59
2023-01-29T09:06:25.469Z,20.65
2023-01-29T09:09:29.249Z,20.70
2023-01-29T09:12:32.691Z,20.73
2023-01-29T09:15:36.222Z,20.78
2023-01-29T09:18:41.001Z,20.81
2023-01-29T09:21:44.452Z,20.85
2023-01-29T09:24:47.641Z,20.89
2023-01-29T09:27:51.117Z,20.92
2023-01-29T09:30:54.595Z,20.96
2023-01-29T09:33:59.523Z,21.00
2023-01-29T09:37:05.588Z,21.04
2023-01-29T09:40:25.904Z,21.07
2023-01-29T09:43:43.619Z,21.10
2023-01-29T09:46:51.409Z,21.13
2023-01-29T09:50:02.250Z,21.15
2023-01-29T09:53:19.307Z,21.16
2023-01-29T09:56:28.813Z,21.19
2023-01-29T09:59:33.523Z,21.21
2023-01-29T10:03:10.687Z,21.18
2023-01-29T10:06:34.872Z,21.24
2023-01-29T10:10:10.265Z,21.24
2023-01-29T10:13:28.344Z,21.26
2023-01-29T10:16:51.958Z,21.25
2023-01-29T10:20:21.181Z,21.27
2023-01-29T10:23:33.498Z,21.30
2023-01-29T10:26:38.650Z,21.31
2023-01-29T10:29:46.359Z,21.28
2023-01-29T10:32:51.638Z,21.32
2023-01-29T10:36:03.186Z,21.31
2023-01-29T10:39:18.915Z,21.31
2023-01-29T10:42:34.756Z,21.31
2023-01-29T10:45:50.910Z,21.36
2023-01-29T10:49:18.093Z,21.37
2023-01-29T10:52:46.660Z,21.37
2023-01-29T10:56:21.843Z,21.41
2023-01-29T10:59:53.263Z,21.43
2023-01-29T11:02:57.350Z,21.45
2023-01-29T11:06:13.826Z,21.47
2023-01-29T11:12:40.304Z,21.52
2023-01-29T11:15:43.588Z,21.56
2023-01-29T11:18:57.839Z,21.57
2023-01-29T11:22:04.329Z,21.63
2023-01-29T11:25:19.069Z,21.65
2023-01-29T11:28:40.966Z,21.65
2023-01-29T11:31:44.510Z,21.67
2023-01-29T11:35:03.176Z,21.64
2023-01-29T11:38:20.921Z,21.63
2023-01-29T11:41:25.456Z,21.62
2023-01-29T11:44:34.019Z,21.66
2023-01-29T11:47:37.601Z,21.69
2023-01-29T11:50:42.015Z,21.74
2023-01-29T11:53:51.141Z,21.76
2023-01-29T11:56:55.302Z,21.79
2023-01-29T12:00:06.344Z,21.83
2023-01-29T12:03:24.888Z,21.86
2023-01-29T12:06:37.790Z,21.88
2023-01-29T12:09:41.727Z,21.89
2023-01-29T12:12:46.279Z,21.90
2023-01-29T12:16:06.087Z,21.91
2023-01-29T12:19:27.531Z,21.91
2023-01-29T12:22:46.719Z,21.90
2023-01-29T12:26:12.898Z,21.88
2023-01-29T12:29:31.267Z,21.86
2023-01-29T12:32:46.498Z,21.82
2023-01-29T12:36:03.216Z,21.79
2023-01-29T12:39:06.711Z,21.81
2023-01-29T12:42:20.461Z,21.78
2023-01-29T12:45:28.106Z,21.75
2023-01-29T12:48:39.390Z,21.73
2023-01-29T12:51:56.707Z,21.70
2023-01-29T12:55:08.486Z,21.67
2023-01-29T12:58:20.207Z,21.64
2023-01-29T13:01:35.405Z,21.62
2023-01-29T13:04:50.205Z,21.60
2023-01-29T13:08:04.560Z,21.59
2023-01-29T13:11:19.395Z,21.58
2023-01-29T13:14:39.100Z,21.57
2023-01-29T13:17:48.639Z,21.56
2023-01-29T13:20:58.214Z,21.53
2023-01-29T13:24:07.751Z,21.56
2023-01-29T13:27:26.794Z,21.56
2023-01-29T13:30:38.608Z,21.57
2023-01-29T13:33:45.793Z,21.62
2023-01-29T13:36:55.872Z,21.66
2023-01-29T13:40:03.741Z,21.73
2023-01-29T13:43:08.357Z,21.77
2023-01-29T13:46:22.018Z,21.82
2023-01-29T13:49:38.300Z,21.85
2023-01-29T13:52:48.894Z,21.85
2023-01-29T13:55:53.146Z,21.85
2023-01-29T13:58:59.345Z,21.82
2023-01-29T14:02:20.290Z,21.79
2023-01-29T14:05:44.198Z,21.75
2023-01-29T14:08:48.811Z,21.73
2023-01-29T14:11:52.610Z,21.70
2023-01-29T14:15:20.681Z,21.64
2023-01-29T14:18:27.342Z,21.62
2023-01-29T14:21:34.473Z,21.57
2023-01-29T14:24:44.321Z,21.53
2023-01-29T14:27:49.572Z,21.51
2023-01-29T14:30:55.105Z,21.51
2023-01-29T14:34:04.634Z,21.53
2023-01-29T14:37:26.946Z,21.55
2023-01-29T14:40:35.718Z,21.57
2023-01-29T14:43:39.300Z,21.59
2023-01-29T14:46:45.943Z,21.58
2023-01-29T14:49:55.409Z,21.57
2023-01-29T14:53:06.313Z,21.58
2023-01-29T14:56:18.574Z,21.58
2023-01-29T14:59:30.543Z,21.61
2023-01-29T15:02:43.015Z,21.61
2023-01-29T15:05:50.517Z,21.64
2023-01-29T15:09:06.319Z,21.62
2023-01-29T15:12:23.992Z,21.65
2023-01-29T15:15:39.055Z,21.66
2023-01-29T15:18:44.600Z,21.68
2023-01-29T15:22:12.133Z,21.65
2023-01-29T15:25:19.239Z,21.67
2023-01-29T15:28:28.004Z,21.68
2023-01-29T15:31:31.637Z,21.73
2023-01-29T15:34:35.557Z,21.77
2023-01-29T15:37:39.631Z,21.77
2023-01-29T15:40:52.844Z,21.75
2023-01-29T15:43:59.249Z,21.76
2023-01-29T15:47:03.895Z,21.73
2023-01-29T15:50:12.166Z,21.71
2023-01-29T15:53:21.179Z,21.64
2023-01-29T15:56:32.059Z,21.64
2023-01-29T15:59:45.776Z,21.62
2023-01-29T16:02:49.383Z,21.59
2023-01-29T16:05:53.808Z,21.53
2023-01-29T16:08:59.326Z,21.52
2023-01-29T16:12:07.221Z,21.48
2023-01-29T16:15:29.930Z,21.45
2023-01-29T16:18:39.488Z,21.44
2023-01-29T16:21:46.012Z,21.44
2023-01-29T16:24:53.130Z,21.42
2023-01-29T16:27:57.057Z,21.39
2023-01-29T16:31:04.332Z,21.36
2023-01-29T16:34:15.722Z,21.34
2023-01-29T16:37:26.755Z,21.32
2023-01-29T16:40:34.025Z,21.31
2023-01-29T16:43:52.982Z,21.26
2023-01-29T16:46:57.840Z,20.59
2023-01-29T16:50:23.974Z,20.23
2023-01-29T16:53:27.478Z,20.31
2023-01-29T16:56:35.772Z,20.42
2023-01-29T16:59:41.751Z,20.49
2023-01-29T17:02:46.799Z,20.51
2023-01-29T17:05:52.490Z,20.53
2023-01-29T17:08:56.979Z,20.58
2023-01-29T17:12:05.050Z,20.60
2023-01-29T17:15:34.382Z,20.66
2023-01-29T17:18:39.887Z,20.72
2023-01-29T17:21:43.311Z,20.76
2023-01-29T17:24:46.516Z,20.79
2023-01-29T17:27:52.435Z,20.82
2023-01-29T17:31:05.928Z,20.84
2023-01-29T17:34:14.667Z,20.85
2023-01-29T17:37:18.199Z,20.88
2023-01-29T17:40:37.766Z,20.87
2023-01-29T17:43:41.019Z,20.90
2023-01-29T17:46:44.726Z,20.91
2023-01-29T17:49:49.274Z,20.92
2023-01-29T17:52:53.846Z,20.93
2023-01-29T17:55:57.072Z,20.95
2023-01-29T17:59:01.012Z,20.94
2023-01-29T18:02:04.351Z,20.94
2023-01-29T18:05:10.149Z,20.93
2023-01-29T18:08:19.067Z,20.95
2023-01-29T18:11:23.142Z,20.98
2023-01-29T18:14:26.371Z,20.98
2023-01-29T18:17:30.146Z,20.99
2023-01-29T18:20:38.430Z,20.98
2023-01-29T18:23:42.428Z,21.00
2023-01-29T18:26:45.717Z,21.00
2023-01-29T18:29:50.408Z,21.00
2023-01-29T18:32:54.502Z,21.00
2023-01-29T18:36:00.595Z,20.99
2023-01-29T18:39:04.210Z,20.99
2023-01-29T18:42:08.110Z,20.99
2023-01-29T18:45:13.624Z,20.98
2023-01-29T18:48:17.302Z,20.94
2023-01-29T18:51:21.875Z,20.94
2023-01-29T18:54:25.476Z,20.94
2023-01-29T18:58:26.134Z,20.92
2023-01-29T19:00:52.564Z,20.91
2023-01-29T19:03:56.532Z,20.86
2023-01-29T19:07:01.786Z,20.91
2023-01-29T19:10:09.292Z,21.21
2023-01-29T19:13:13.109Z,21.62
2023-01-29T19:16:16.566Z,21.99
2023-01-29T19:19:21.234Z,22.39
2023-01-29T19:22:25.896Z,22.89
2023-01-29T19:25:29.798Z,23.29
2023-01-29T19:28:33.771Z,23.59
2023-01-29T19:31:37.725Z,23.80
2023-01-29T19:34:41.069Z,23.99
2023-01-29T19:37:46.240Z,24.13
2023-01-29T19:40:49.657Z,24.32
2023-01-29T19:43:53.996Z,24.46
2023-01-29T19:46:57.458Z,24.63
2023-01-29T19:50:02.115Z,24.80
2023-01-29T19:53:06.745Z,24.89
2023-01-29T19:56:13.598Z,25.03
2023-01-29T19:59:16.784Z,25.12
2023-01-29T20:02:20.429Z,25.16
2023-01-29T20:05:24.101Z,25.15
2023-01-29T20:08:29.357Z,25.20
2023-01-29T20:11:33.148Z,25.25
2023-01-29T20:14:36.614Z,25.32
2023-01-29T20:17:40.150Z,25.40
2023-01-29T20:20:45.169Z,25.56
2023-01-29T20:23:51.371Z,25.76
2023-01-29T20:26:55.128Z,25.90
2023-01-29T20:29:58.411Z,26.08
2023-01-29T20:33:03.219Z,26.17
2023-01-29T20:36:10.293Z,26.26
2023-01-29T20:39:15.203Z,26.36
2023-01-29T20:42:18.459Z,26.51
2023-01-29T20:45:23.317Z,26.63
2023-01-29T20:48:26.553Z,26.63
2023-01-29T20:51:30.759Z,26.67
2023-01-29T20:54:35.497Z,26.74
2023-01-29T20:57:40.208Z,26.80
2023-01-29T21:00:43.570Z,26.88
2023-01-29T21:03:48.380Z,26.96
2023-01-29T21:06:51.620Z,27.07
2023-01-29T21:09:56.716Z,27.18
2023-01-29T21:13:00.056Z,27.32
2023-01-29T21:16:04.057Z,27.44
2023-01-29T21:19:07.856Z,27.52
2023-01-29T21:22:11.365Z,27.59
2023-01-29T21:25:20.251Z,27.59
2023-01-29T21:28:24.180Z,27.54
2023-01-29T21:31:27.630Z,27.55
2023-01-29T21:34:31.749Z,27.49
2023-01-29T21:37:36.918Z,27.43
2023-01-29T21:40:42.295Z,27.39
2023-01-29T21:43:46.119Z,27.37
2023-01-29T21:46:49.823Z,27.31
2023-01-29T21:49:53.080Z,27.29
2023-01-29T21:52:56.983Z,27.34
2023-01-29T21:56:03.416Z,27.41
2023-01-29T21:59:07.612Z,27.43
2023-01-29T22:02:15.676Z,27.75
2023-01-29T22:05:20.532Z,28.18
2023-01-29T22:08:23.877Z,28.49
2023-01-29T22:11:29.393Z,28.70
2023-01-29T22:14:32.566Z,28.85
2023-01-29T22:17:36.719Z,28.95
2023-01-29T22:20:39.928Z,29.03
2023-01-29T22:23:43.855Z,29.08
2023-01-29T22:26:49.454Z,29.14
2023-01-29T22:29:53.343Z,29.18
2023-01-29T22:32:56.589Z,29.23
2023-01-29T22:36:00.349Z,29.28
2023-01-29T22:39:04.516Z,29.33
2023-01-29T22:42:09.424Z,29.32
2023-01-29T22:45:13.547Z,29.33
2023-01-29T22:48:17.196Z,29.36
2023-01-29T22:51:20.420Z,29.10
2023-01-29T22:54:23.940Z,28.61
2023-01-29T22:57:28.551Z,28.25
2023-01-29T23:00:32.573Z,28.01
2023-01-29T23:03:36.414Z,27.88
2023-01-29T23:06:39.998Z,27.78
2023-01-29T23:09:43.191Z,27.73
2023-01-29T23:12:48.233Z,27.70
2023-01-29T23:16:00.032Z,27.70
2023-01-29T23:19:03.921Z,27.71
2023-01-29T23:22:07.150Z,27.69
2023-01-29T23:25:11.240Z,27.70
2023-01-29T23:28:15.006Z,27.70
2023-01-29T23:31:19.210Z,27.69
2023-01-29T23:34:22.434Z,27.66
2023-01-29T23:37:26.441Z,27.64
2023-01-29T23:40:29.634Z,27.61
2023-01-29T23:43:35.380Z,27.59
2023-01-29T23:46:38.574Z,27.59
2023-01-29T23:49:42.432Z,27.58
2023-01-29T23:52:45.590Z,27.59
2023-01-29T23:55:58.385Z,27.56
2023-01-29T23:59:02.886Z,27.55
